< < Back
Terminal Aerodrome Forecast


Current Version              Previous Versions:   1  2  3  4  5  6  7  8  9  

Terminal Aerodrome Forecast

688
FTUS42 KTAE 161700
TAFVLD
TAF
KVLD 161726Z 1618/1718 07009G14KT P6SM SKC
     FM162000 08008G13KT P6SM SCT030 SCT250
      TEMPO 1620/1624 BKN025
     FM170800 04007KT P6SM BKN015
     FM171500 08010G15KT P6SM BKN025 BKN100=

Latest METAR

894
SAUS70 KWBC 170100 RRE
MTRVLD
METAR KVLD 170053Z 08007KT 10SM SCT041 15/08 A3022 RMK AO2 SLP241
T01500078


USA.gov is the U.S. government's official web portal to all federal, state and local government web resources and services.